createdAt,value
2018-07-31T00:02:24.546Z,20.77
2018-07-31T00:04:54.717Z,20.79
2018-07-31T00:07:26.074Z,20.68
2018-07-31T00:10:00.620Z,20.53
2018-07-31T00:12:32.246Z,20.55
2018-07-31T00:15:05.346Z,20.60
2018-07-31T00:17:39.971Z,20.63
2018-07-31T00:20:12.819Z,20.65
2018-07-31T00:22:45.870Z,20.68
2018-07-31T00:25:16.551Z,20.64
2018-07-31T00:27:49.306Z,20.69
2018-07-31T00:30:24.651Z,20.71
2018-07-31T00:32:56.327Z,20.65
2018-07-31T00:35:28.019Z,20.66
2018-07-31T00:38:02.722Z,20.83
2018-07-31T00:40:35.656Z,20.85
2018-07-31T00:43:07.102Z,20.79
2018-07-31T00:45:41.515Z,20.65
2018-07-31T00:48:13.515Z,20.79
2018-07-31T00:50:46.661Z,20.83
2018-07-31T00:53:18.628Z,20.83
2018-07-31T00:55:53.207Z,20.85
2018-07-31T00:58:24.577Z,20.80
2018-07-31T01:00:56.048Z,20.71
2018-07-31T01:03:29.056Z,20.58
2018-07-31T01:06:00.445Z,20.56
2018-07-31T01:08:33.466Z,20.61
2018-07-31T01:11:07.968Z,20.57
2018-07-31T01:13:40.944Z,20.64
2018-07-31T01:16:13.958Z,20.66
2018-07-31T01:18:46.898Z,20.69
2018-07-31T01:21:21.636Z,20.66
2018-07-31T01:23:54.662Z,20.71
2018-07-31T01:26:29.198Z,20.80
2018-07-31T01:29:01.636Z,20.80
2018-07-31T01:31:31.678Z,20.90
2018-07-31T01:34:03.497Z,20.98
2018-07-31T01:36:34.535Z,21.01
2018-07-31T01:39:10.688Z,21.05
2018-07-31T01:41:43.905Z,21.02
2018-07-31T01:44:13.857Z,20.94
2018-07-31T01:46:43.889Z,20.90
2018-07-31T01:49:15.874Z,20.87
2018-07-31T01:51:48.725Z,20.77
2018-07-31T01:54:21.739Z,20.88
2018-07-31T01:56:55.326Z,20.97
2018-07-31T01:59:26.942Z,21.26
2018-07-31T02:01:58.328Z,21.39
2018-07-31T02:04:31.514Z,21.41
2018-07-31T02:07:03.393Z,21.44
2018-07-31T02:09:35.880Z,21.45
2018-07-31T02:12:09.713Z,21.44
2018-07-31T02:14:42.656Z,21.42
2018-07-31T02:17:15.757Z,21.47
2018-07-31T02:19:48.807Z,21.53
2018-07-31T02:22:23.528Z,21.57
2018-07-31T02:24:55.026Z,21.50
2018-07-31T02:27:28.133Z,21.39
2018-07-31T02:30:11.058Z,21.35
2018-07-31T02:32:43.993Z,21.22
2018-07-31T02:35:17.132Z,21.18
2018-07-31T02:37:50.142Z,21.05
2018-07-31T02:40:24.631Z,21.19
2018-07-31T02:42:56.018Z,21.19
2018-07-31T02:45:27.441Z,21.17
2018-07-31T02:48:00.917Z,21.26
2018-07-31T02:50:34.064Z,21.38
2018-07-31T02:53:05.389Z,21.45
2018-07-31T02:55:38.376Z,21.51
2018-07-31T02:58:12.859Z,21.52
2018-07-31T03:00:44.822Z,21.56
2018-07-31T03:03:19.465Z,21.52
2018-07-31T03:05:50.965Z,21.48
2018-07-31T03:08:22.369Z,21.45
2018-07-31T03:10:56.770Z,21.49
2018-07-31T03:13:31.538Z,21.48
2018-07-31T03:16:04.645Z,21.50
2018-07-31T03:18:37.001Z,21.47
2018-07-31T03:21:10.308Z,21.43
2018-07-31T03:23:43.199Z,21.40
2018-07-31T03:26:14.567Z,21.42
2018-07-31T03:28:44.542Z,21.56
2018-07-31T03:31:18.052Z,21.48
2018-07-31T03:33:51.255Z,21.46
2018-07-31T03:36:22.693Z,21.43
2018-07-31T03:38:57.167Z,21.33
2018-07-31T03:41:30.224Z,21.12
2018-07-31T03:44:03.379Z,21.02
2018-07-31T03:46:34.816Z,21.00
2018-07-31T03:49:07.832Z,21.02
2018-07-31T03:51:39.403Z,20.98
2018-07-31T03:54:13.865Z,20.89
2018-07-31T03:56:46.878Z,20.91
2018-07-31T03:59:20.674Z,20.87
2018-07-31T04:01:53.618Z,20.95
2018-07-31T04:04:25.247Z,21.03
2018-07-31T04:06:57.510Z,21.01
2018-07-31T04:09:30.314Z,21.15
2018-07-31T04:12:03.763Z,21.43
2018-07-31T04:14:39.218Z,21.53
2018-07-31T04:17:13.005Z,21.57
2018-07-31T04:19:46.015Z,21.68
2018-07-31T04:22:17.475Z,21.69
2018-07-31T04:24:49.058Z,21.66
2018-07-31T04:27:22.277Z,21.88
2018-07-31T04:29:56.629Z,22.28
2018-07-31T04:32:29.520Z,22.27
2018-07-31T04:35:04.180Z,22.42
2018-07-31T04:37:37.485Z,22.42
2018-07-31T04:40:07.491Z,22.38
2018-07-31T04:42:40.556Z,22.26
2018-07-31T04:45:13.483Z,22.46
2018-07-31T04:47:46.578Z,22.75
2018-07-31T04:50:17.120Z,22.79
2018-07-31T04:52:48.947Z,23.02
2018-07-31T04:55:19.440Z,22.85
2018-07-31T04:57:52.487Z,22.75
2018-07-31T05:00:23.926Z,22.74
2018-07-31T05:02:56.918Z,22.74
2018-07-31T05:05:28.433Z,22.66
2018-07-31T05:07:59.904Z,22.80
2018-07-31T05:10:31.333Z,22.96
2018-07-31T05:13:03.797Z,23.20
2018-07-31T05:15:36.640Z,23.34
2018-07-31T05:18:08.225Z,23.37
2018-07-31T05:20:42.838Z,23.51
2018-07-31T05:23:14.188Z,23.62
2018-07-31T05:25:47.001Z,23.59
2018-07-31T05:28:18.473Z,23.66
2018-07-31T05:30:51.348Z,23.57
2018-07-31T05:33:26.089Z,23.98
2018-07-31T05:36:00.764Z,24.49
2018-07-31T05:38:33.763Z,25.13
2018-07-31T05:41:06.589Z,25.06
2018-07-31T05:43:38.863Z,25.08
2018-07-31T05:46:08.814Z,25.23
2018-07-31T05:48:40.176Z,25.52
2018-07-31T05:51:10.196Z,25.05
2018-07-31T05:53:42.356Z,24.63
2018-07-31T05:56:15.169Z,24.19
2018-07-31T05:58:46.506Z,23.64
2018-07-31T06:01:18.082Z,23.17
2018-07-31T06:03:50.681Z,23.24
2018-07-31T06:06:22.218Z,23.54
2018-07-31T06:08:53.637Z,23.74
2018-07-31T06:11:25.341Z,23.76
2018-07-31T06:13:57.254Z,24.67
2018-07-31T06:16:28.672Z,25.47
2018-07-31T06:19:00.179Z,26.12
2018-07-31T06:21:32.985Z,26.47
2018-07-31T06:24:03.870Z,26.41
2018-07-31T06:26:38.216Z,25.52
2018-07-31T06:29:11.185Z,26.33
2018-07-31T06:31:45.465Z,26.38
2018-07-31T06:34:19.082Z,27.51
2018-07-31T06:36:52.179Z,27.50
2018-07-31T06:39:23.661Z,27.17
2018-07-31T06:41:55.097Z,27.53
2018-07-31T06:44:26.590Z,27.44
2018-07-31T06:46:56.504Z,27.25
2018-07-31T06:49:29.547Z,25.94
2018-07-31T06:51:59.657Z,27.38
2018-07-31T06:54:31.187Z,27.99
2018-07-31T06:57:04.012Z,28.37
2018-07-31T06:59:37.165Z,28.64
2018-07-31T07:02:10.083Z,27.93
2018-07-31T07:04:41.519Z,28.41
2018-07-31T07:07:11.519Z,27.93
2018-07-31T07:09:43.389Z,27.91
2018-07-31T07:12:17.754Z,27.95
2018-07-31T07:14:51.102Z,28.14
2018-07-31T07:17:23.957Z,27.16
2018-07-31T07:19:53.806Z,27.21
2018-07-31T07:22:26.548Z,27.24
2018-07-31T07:24:58.433Z,26.15
2018-07-31T07:27:28.360Z,26.93
2018-07-31T07:29:59.848Z,27.41
2018-07-31T07:32:34.268Z,27.91
2018-07-31T07:35:08.539Z,27.27
2018-07-31T07:37:40.534Z,27.10
2018-07-31T07:40:12.744Z,26.98
2018-07-31T07:42:43.996Z,27.04
2018-07-31T07:45:17.421Z,26.72
2018-07-31T07:47:50.711Z,27.12
2018-07-31T07:50:23.545Z,26.99
2018-07-31T07:52:56.802Z,27.06
2018-07-31T07:55:28.205Z,27.10
2018-07-31T07:58:01.334Z,27.06
2018-07-31T08:00:32.817Z,27.09
2018-07-31T08:03:06.324Z,27.13
2018-07-31T08:05:38.553Z,26.45
2018-07-31T08:08:13.789Z,26.98
2018-07-31T08:10:48.130Z,27.49
2018-07-31T08:13:18.190Z,27.08
2018-07-31T08:15:52.657Z,27.79
2018-07-31T08:18:27.054Z,28.08
2018-07-31T08:21:00.455Z,28.56
2018-07-31T08:23:34.009Z,29.32
2018-07-31T08:26:03.958Z,29.24
2018-07-31T08:28:36.776Z,28.72
2018-07-31T08:31:08.237Z,29.52
2018-07-31T08:33:42.591Z,28.64
2018-07-31T08:36:13.714Z,29.25
2018-07-31T08:38:48.101Z,29.95
2018-07-31T08:41:19.505Z,29.62
2018-07-31T08:43:51.323Z,28.95
2018-07-31T08:46:22.574Z,28.41
2018-07-31T08:48:52.528Z,28.81
2018-07-31T08:51:23.868Z,30.02
2018-07-31T08:53:56.722Z,29.81
2018-07-31T08:56:28.153Z,29.34
2018-07-31T08:59:01.021Z,30.18
2018-07-31T09:01:31.854Z,31.68
2018-07-31T09:04:03.288Z,30.88
2018-07-31T09:06:34.653Z,30.39
2018-07-31T09:09:09.898Z,30.95
2018-07-31T09:11:39.788Z,31.38
2018-07-31T09:14:11.446Z,31.96
2018-07-31T09:16:41.751Z,31.37
2018-07-31T09:19:14.592Z,31.79
2018-07-31T09:21:46.013Z,31.34
2018-07-31T09:24:18.880Z,32.33
2018-07-31T09:26:51.766Z,32.13
2018-07-31T09:29:24.639Z,32.64
2018-07-31T09:31:58.867Z,32.94
2018-07-31T09:34:31.172Z,32.63
2018-07-31T09:37:02.613Z,31.71
2018-07-31T09:39:33.998Z,31.93
2018-07-31T09:42:05.329Z,32.15
2018-07-31T09:44:36.822Z,32.98
2018-07-31T09:47:10.417Z,33.00
2018-07-31T09:49:42.253Z,32.86
2018-07-31T09:52:14.608Z,32.26
2018-07-31T09:54:46.824Z,32.63
2018-07-31T09:57:16.807Z,32.48
2018-07-31T09:59:48.231Z,31.78
2018-07-31T10:02:19.708Z,31.35
2018-07-31T10:04:51.138Z,31.19
2018-07-31T10:07:22.488Z,30.61
2018-07-31T10:09:55.037Z,29.82
2018-07-31T10:12:26.475Z,29.84
2018-07-31T10:14:57.888Z,31.58
2018-07-31T10:17:29.991Z,32.16
2018-07-31T10:20:04.319Z,32.00
2018-07-31T10:22:37.263Z,32.57
2018-07-31T10:25:08.960Z,31.98
2018-07-31T10:27:40.361Z,31.45
2018-07-31T10:30:11.984Z,31.03
2018-07-31T10:32:44.795Z,30.64
2018-07-31T10:35:16.217Z,30.15
2018-07-31T10:37:47.736Z,30.12
2018-07-31T10:40:19.244Z,30.70
2018-07-31T10:42:52.155Z,30.15
2018-07-31T10:45:26.501Z,29.90
2018-07-31T10:47:58.764Z,30.30
2018-07-31T10:50:30.220Z,31.33
2018-07-31T10:53:03.157Z,31.43
2018-07-31T10:55:34.567Z,30.83
2018-07-31T10:58:08.845Z,30.05
2018-07-31T11:00:38.894Z,30.43
2018-07-31T11:03:10.552Z,31.44
2018-07-31T11:05:41.924Z,32.04
2018-07-31T11:08:14.742Z,31.48
2018-07-31T11:10:47.579Z,31.70
2018-07-31T11:13:18.967Z,31.12
2018-07-31T11:15:52.168Z,31.45
2018-07-31T11:18:25.022Z,31.81
2018-07-31T11:20:56.699Z,32.10
2018-07-31T11:23:30.942Z,31.94
2018-07-31T11:26:02.400Z,30.36
2018-07-31T11:28:33.728Z,31.20
2018-07-31T11:31:05.265Z,30.95
2018-07-31T11:33:38.767Z,30.75
2018-07-31T11:36:11.817Z,31.41
2018-07-31T11:38:43.656Z,31.16
2018-07-31T11:41:13.582Z,30.82
2018-07-31T11:43:44.731Z,30.81
2018-07-31T11:46:16.611Z,31.30
2018-07-31T11:48:49.480Z,30.94
2018-07-31T11:51:19.859Z,29.71
2018-07-31T11:53:50.361Z,29.68
2018-07-31T11:56:20.536Z,29.83
2018-07-31T11:58:55.289Z,30.47
2018-07-31T12:01:28.427Z,30.00
2018-07-31T12:03:59.813Z,29.34
2018-07-31T12:06:31.260Z,29.88
2018-07-31T12:09:06.423Z,30.17
2018-07-31T12:11:39.274Z,30.47
2018-07-31T12:14:13.550Z,30.02
2018-07-31T12:16:44.500Z,30.30
2018-07-31T12:19:15.984Z,30.01
2018-07-31T12:21:47.462Z,30.00
2018-07-31T12:24:19.112Z,30.11
2018-07-31T12:26:50.529Z,29.58
2018-07-31T12:29:22.293Z,28.83
2018-07-31T12:31:55.335Z,29.91
2018-07-31T12:34:25.966Z,29.59
2018-07-31T12:36:58.070Z,29.83
2018-07-31T12:39:30.313Z,29.83
2018-07-31T12:42:00.240Z,29.40
2018-07-31T12:44:33.288Z,29.75
2018-07-31T12:47:06.184Z,30.01
2018-07-31T12:49:37.608Z,30.05
2018-07-31T12:52:09.171Z,30.32
2018-07-31T12:54:40.635Z,29.88
2018-07-31T12:57:13.486Z,30.08
2018-07-31T12:59:44.994Z,30.13
2018-07-31T13:02:18.334Z,29.92
2018-07-31T13:04:50.182Z,29.99
2018-07-31T13:07:21.039Z,29.93
2018-07-31T13:09:54.115Z,29.66
2018-07-31T13:12:24.633Z,29.86
2018-07-31T13:14:57.613Z,30.09
2018-07-31T13:17:29.537Z,29.74
2018-07-31T13:20:02.503Z,29.89
2018-07-31T13:22:34.740Z,30.00
2018-07-31T13:25:08.161Z,29.82
2018-07-31T13:27:42.788Z,29.81
2018-07-31T13:30:15.851Z,29.97
2018-07-31T13:32:45.715Z,30.04
2018-07-31T13:35:18.886Z,29.53
2018-07-31T13:37:51.591Z,29.94
2018-07-31T13:40:24.605Z,29.94
2018-07-31T13:42:55.291Z,30.11
2018-07-31T13:45:26.576Z,29.57
2018-07-31T13:47:57.955Z,29.98
2018-07-31T13:50:27.852Z,30.18
2018-07-31T13:53:00.722Z,30.32
2018-07-31T13:55:33.800Z,29.69
2018-07-31T13:58:05.094Z,29.39
2018-07-31T14:00:39.471Z,29.83
2018-07-31T14:03:10.853Z,29.58
2018-07-31T14:05:42.368Z,29.83
2018-07-31T14:08:14.057Z,29.62
2018-07-31T14:10:44.021Z,29.69
2018-07-31T14:13:15.857Z,29.38
2018-07-31T14:15:48.500Z,29.30
2018-07-31T14:18:20.889Z,29.44
2018-07-31T14:20:53.235Z,29.34
2018-07-31T14:23:25.906Z,29.02
2018-07-31T14:26:00.192Z,29.45
2018-07-31T14:28:30.158Z,29.22
2018-07-31T14:31:02.995Z,29.22
2018-07-31T14:33:36.384Z,29.37
2018-07-31T14:36:07.934Z,29.43
2018-07-31T14:38:40.388Z,29.20
2018-07-31T14:41:11.781Z,29.22
2018-07-31T14:43:44.734Z,29.31
2018-07-31T14:46:17.071Z,29.61
2018-07-31T14:48:46.982Z,29.25
2018-07-31T14:51:19.165Z,28.89
2018-07-31T14:53:50.651Z,28.99
2018-07-31T14:56:20.629Z,29.22
2018-07-31T14:58:49.673Z,29.33
2018-07-31T15:01:22.554Z,29.18
2018-07-31T15:03:55.551Z,29.18
2018-07-31T15:06:26.925Z,28.80
2018-07-31T15:08:58.436Z,28.38
2018-07-31T15:11:32.779Z,28.66
2018-07-31T15:14:04.714Z,28.72
2018-07-31T15:16:36.164Z,28.66
2018-07-31T15:19:07.611Z,28.82
2018-07-31T15:21:39.051Z,28.80
2018-07-31T15:24:09.022Z,28.67
2018-07-31T15:26:40.407Z,28.74
2018-07-31T15:29:13.224Z,28.75
2018-07-31T15:31:44.695Z,28.04
2018-07-31T15:34:15.270Z,28.31
2018-07-31T15:36:45.690Z,28.30
2018-07-31T15:39:18.557Z,28.44
2018-07-31T15:41:48.027Z,27.89
2018-07-31T15:44:21.694Z,28.11
2018-07-31T15:46:54.485Z,27.98
2018-07-31T15:49:26.009Z,27.92
2018-07-31T15:51:55.958Z,28.05
2018-07-31T15:54:28.718Z,28.02
2018-07-31T15:57:00.160Z,27.95
2018-07-31T15:59:33.020Z,28.03
2018-07-31T16:02:04.535Z,27.81
2018-07-31T16:04:38.272Z,27.41
2018-07-31T16:07:11.208Z,27.71
2018-07-31T16:09:41.596Z,27.74
2018-07-31T16:12:13.600Z,27.71
2018-07-31T16:14:45.300Z,27.93
2018-07-31T16:17:17.995Z,27.81
2018-07-31T16:19:49.366Z,27.95
2018-07-31T16:22:21.197Z,27.59
2018-07-31T16:24:53.216Z,27.70
2018-07-31T16:27:25.979Z,27.58
2018-07-31T16:29:57.832Z,27.45
2018-07-31T16:32:29.298Z,27.14
2018-07-31T16:35:01.119Z,27.36
2018-07-31T16:37:32.503Z,27.44
2018-07-31T16:40:04.061Z,27.44
2018-07-31T16:42:35.969Z,27.21
2018-07-31T16:45:07.529Z,27.05
2018-07-31T16:47:39.939Z,27.04
2018-07-31T16:50:10.302Z,27.12
2018-07-31T16:52:43.360Z,26.89
2018-07-31T16:55:16.177Z,26.72
2018-07-31T16:57:49.038Z,26.75
2018-07-31T17:00:22.405Z,26.63
2018-07-31T17:02:55.353Z,26.73
2018-07-31T17:05:26.996Z,26.60
2018-07-31T17:07:56.952Z,26.54
2018-07-31T17:10:28.481Z,26.37
2018-07-31T17:13:01.494Z,26.44
2018-07-31T17:15:33.025Z,26.43
2018-07-31T17:18:06.807Z,26.63
2018-07-31T17:20:37.728Z,26.24
2018-07-31T17:23:10.619Z,26.41
2018-07-31T17:25:42.026Z,25.94
2018-07-31T17:28:12.336Z,26.14
2018-07-31T17:30:43.774Z,26.16
2018-07-31T17:33:13.682Z,26.12
2018-07-31T17:35:46.934Z,25.63
2018-07-31T17:38:20.071Z,25.89
2018-07-31T17:40:54.492Z,25.95
2018-07-31T17:43:27.401Z,25.81
2018-07-31T17:45:58.760Z,25.77
2018-07-31T17:48:28.692Z,25.76
2018-07-31T17:50:59.092Z,25.54
2018-07-31T17:53:29.490Z,25.20
2018-07-31T17:56:01.381Z,24.90
2018-07-31T17:58:31.810Z,25.05
2018-07-31T18:01:02.173Z,25.11
2018-07-31T18:03:35.470Z,24.90
2018-07-31T18:06:08.353Z,25.10
2018-07-31T18:08:38.957Z,25.16
2018-07-31T18:11:10.579Z,25.09
2018-07-31T18:13:42.047Z,25.13
2018-07-31T18:16:14.832Z,24.89
2018-07-31T18:18:44.774Z,24.73
2018-07-31T18:21:14.657Z,24.76
2018-07-31T18:23:44.658Z,24.84
2018-07-31T18:26:14.539Z,24.51
2018-07-31T18:28:48.853Z,24.84
2018-07-31T18:31:21.803Z,24.69
2018-07-31T18:33:54.581Z,24.61
2018-07-31T18:36:28.027Z,24.55
2018-07-31T18:38:59.003Z,24.14
2018-07-31T18:41:30.405Z,24.24
2018-07-31T18:44:00.677Z,23.94
2018-07-31T18:46:32.980Z,23.95
2018-07-31T18:49:04.544Z,24.12
2018-07-31T18:51:36.192Z,24.12
2018-07-31T18:54:07.935Z,24.00
2018-07-31T18:56:39.668Z,23.85
2018-07-31T18:59:10.086Z,23.79
2018-07-31T19:01:41.634Z,23.68
2018-07-31T19:04:15.185Z,23.72
2018-07-31T19:06:45.635Z,23.53
2018-07-31T19:09:18.643Z,23.47
2018-07-31T19:11:50.138Z,23.33
2018-07-31T19:14:23.149Z,23.08
2018-07-31T19:16:53.264Z,23.07
2018-07-31T19:19:26.436Z,22.96
2018-07-31T19:21:58.198Z,22.90
2018-07-31T19:24:33.556Z,22.93
2018-07-31T19:27:04.979Z,22.79
2018-07-31T19:29:37.971Z,22.61
2018-07-31T19:32:09.122Z,22.60
2018-07-31T19:34:42.474Z,22.59
2018-07-31T19:37:13.189Z,22.42
2018-07-31T19:39:45.374Z,22.34
2018-07-31T19:42:16.838Z,22.26
2018-07-31T19:44:47.129Z,22.26
2018-07-31T19:47:18.516Z,22.12
2018-07-31T19:49:49.935Z,22.04
2018-07-31T19:52:21.597Z,22.02
2018-07-31T19:54:54.533Z,22.01
2018-07-31T19:57:28.902Z,21.96
2018-07-31T20:00:02.499Z,21.82
2018-07-31T20:02:34.986Z,21.91
2018-07-31T20:05:04.946Z,21.89
2018-07-31T20:07:35.654Z,21.75
2018-07-31T20:10:07.633Z,21.66
2018-07-31T20:12:37.610Z,21.63
2018-07-31T20:15:10.796Z,21.62
2018-07-31T20:17:40.722Z,21.41
2018-07-31T20:20:10.770Z,21.55
2018-07-31T20:22:42.223Z,21.47
2018-07-31T20:25:14.258Z,21.48
2018-07-31T20:27:47.183Z,21.37
2018-07-31T20:30:20.350Z,21.35
2018-07-31T20:32:50.784Z,21.23
2018-07-31T20:35:21.896Z,21.08
2018-07-31T20:37:53.305Z,20.90
2018-07-31T20:40:25.128Z,20.75
2018-07-31T20:42:56.632Z,20.63
2018-07-31T20:45:28.337Z,20.64
2018-07-31T20:48:00.392Z,20.46
2018-07-31T20:50:31.876Z,20.39
2018-07-31T20:53:03.978Z,20.42
2018-07-31T20:55:36.270Z,20.47
2018-07-31T20:58:07.944Z,20.52
2018-07-31T21:00:42.744Z,20.54
2018-07-31T21:03:15.883Z,20.50
2018-07-31T21:05:47.258Z,20.46
2018-07-31T21:08:17.230Z,20.35
2018-07-31T21:10:49.409Z,20.37
2018-07-31T21:13:22.671Z,20.36
2018-07-31T21:15:55.628Z,20.33
2018-07-31T21:18:28.837Z,20.32
2018-07-31T21:21:03.235Z,20.31
2018-07-31T21:23:36.101Z,20.33
2018-07-31T21:26:09.350Z,20.11
2018-07-31T21:28:40.810Z,19.89
2018-07-31T21:31:12.275Z,19.76
2018-07-31T21:33:43.763Z,19.63
2018-07-31T21:36:15.235Z,19.40
2018-07-31T21:38:46.675Z,19.51
2018-07-31T21:41:18.289Z,19.54
2018-07-31T21:43:53.018Z,19.45
2018-07-31T21:46:25.940Z,19.41
2018-07-31T21:48:58.858Z,19.39
2018-07-31T21:51:31.855Z,19.69
2018-07-31T21:54:04.803Z,19.89
2018-07-31T21:56:36.504Z,19.97
2018-07-31T21:59:07.872Z,20.05
2018-07-31T22:01:39.407Z,20.10
2018-07-31T22:04:11.293Z,19.78
2018-07-31T22:06:41.059Z,19.66
2018-07-31T22:09:12.780Z,19.63
2018-07-31T22:11:47.372Z,19.48
2018-07-31T22:14:19.240Z,19.36
2018-07-31T22:16:52.280Z,19.40
2018-07-31T22:19:23.690Z,19.31
2018-07-31T22:21:55.201Z,19.10
2018-07-31T22:24:25.927Z,18.89
2018-07-31T22:26:56.889Z,18.59
2018-07-31T22:29:28.327Z,18.69
2018-07-31T22:32:01.339Z,18.66
2018-07-31T22:34:32.853Z,18.58
2018-07-31T22:37:04.326Z,18.67
2018-07-31T22:39:36.708Z,18.72
2018-07-31T22:42:09.631Z,18.73
2018-07-31T22:44:39.682Z,18.78
2018-07-31T22:47:12.847Z,18.75
2018-07-31T22:49:44.629Z,18.57
2018-07-31T22:52:16.091Z,18.48
2018-07-31T22:54:47.641Z,18.60
2018-07-31T22:57:20.418Z,18.70
2018-07-31T22:59:51.320Z,18.59
2018-07-31T23:02:21.885Z,18.58
2018-07-31T23:04:55.196Z,18.60
2018-07-31T23:07:28.232Z,18.66
2018-07-31T23:10:08.062Z,18.46
2018-07-31T23:12:39.584Z,18.51
2018-07-31T23:15:14.320Z,18.77
2018-07-31T23:17:47.349Z,18.94
2018-07-31T23:20:21.260Z,18.87
2018-07-31T23:22:55.105Z,18.63
2018-07-31T23:25:26.702Z,18.56
2018-07-31T23:27:58.632Z,18.54
2018-07-31T23:30:33.593Z,18.49
2018-07-31T23:33:06.627Z,18.41
2018-07-31T23:35:38.113Z,18.26
2018-07-31T23:38:10.546Z,17.98
2018-07-31T23:40:42.154Z,17.98
2018-07-31T23:43:13.909Z,18.05
2018-07-31T23:45:44.020Z,18.28
2018-07-31T23:48:16.944Z,18.23
2018-07-31T23:50:48.491Z,18.19
2018-07-31T23:53:19.981Z,18.29
2018-07-31T23:55:52.922Z,18.29
2018-07-31T23:58:25.843Z,18.23
